Time;durP1;ratioP1;P1;durP2;ratioP2;P2;SDS_P1;SDS_P2;PMS_P1;PMS_P2;Temp;Humidity;BMP_temperature;BMP_pressure;BME280_temperature;BME280_humidity;BME280_pressure;Samples;Min_cycle;Max_cycle;Signal;HPM_P1;HPM_P2
2022/01/24 00:01:57;;;;;;;1999.90;999.90;;;;;;;8.96;81.72;103027.63;5067206;28;20503;-65
2022/01/24 00:04:26;;;;;;;1999.90;999.90;;;;;;;8.88;81.89;103016.34;5065474;28;20586;-65
2022/01/24 00:06:53;;;;;;;1999.90;999.90;;;;;;;8.86;82.03;103020.75;5063964;28;20094;-65
2022/01/24 00:09:20;;;;;;;1999.90;999.90;;;;;;;8.92;82.29;103016.31;5066651;28;20059;-65
2022/01/24 00:11:58;;;;;;;1999.90;999.90;;;;;;;8.91;81.84;103021.56;5067459;28;20048;-65
2022/01/24 00:17:19;;;;;;;1999.90;999.90;;;;;;;8.91;82.36;103024.19;5059579;28;20072;-65
2022/01/24 00:27:58;;;;;;;1999.90;999.90;;;;;;;8.74;82.76;103025.19;5083630;28;20058;-65
2022/01/24 00:30:25;;;;;;;1999.90;999.90;;;;;;;8.92;82.27;103021.56;5078816;28;20110;-65
2022/01/24 00:32:51;;;;;;;1999.90;999.90;;;;;;;8.64;83.11;103018.31;5072947;28;20041;-65
2022/01/24 00:35:19;;;;;;;1999.90;999.90;;;;;;;8.83;82.68;103020.78;5068173;28;20459;-65
2022/01/24 00:37:45;;;;;;;1999.90;999.90;;;;;;;9.00;81.76;103024.13;5065856;28;20519;-65
2022/01/24 00:40:12;;;;;;;1999.90;999.90;;;;;;;9.02;81.84;103022.34;5065299;28;20105;-65
2022/01/24 00:42:50;;;;;;;1999.90;999.90;;;;;;;9.15;81.18;103024.84;5065544;28;20102;-65
2022/01/24 00:45:26;;;;;;;1999.90;999.90;;;;;;;9.17;80.88;103023.06;5067191;28;20544;-65
2022/01/24 00:48:10;;;;;;;1999.90;999.90;;;;;;;9.12;81.00;103024.00;5082011;28;20047;-65
2022/01/24 00:53:37;;;;;;;1999.90;999.90;;;;;;;9.01;81.45;103024.13;5065237;28;20177;-70
2022/01/24 00:56:04;;;;;;;1999.90;999.90;;;;;;;8.93;82.10;103027.66;5058146;28;20044;-65
2022/01/24 00:58:31;;;;;;;1999.90;999.90;;;;;;;8.96;81.79;103023.28;5060218;28;20044;-65
2022/01/24 01:00:57;;;;;;;1999.90;999.90;;;;;;;9.05;81.77;103024.94;5051527;28;20083;-65
2022/01/24 01:03:24;;;;;;;1999.90;999.90;;;;;;;9.00;81.46;103024.97;5045451;28;20052;-65
2022/01/24 01:06:04;;;;;;;1999.90;999.90;;;;;;;8.99;81.87;103022.38;5049111;28;20568;-65
2022/01/24 01:19:29;;;;;;;1999.90;999.90;;;;;;;8.86;82.21;103020.75;5083914;28;20060;-65
2022/01/24 01:21:57;;;;;;;1999.90;999.90;;;;;;;8.89;82.44;103026.81;5062062;28;20413;-65
2022/01/24 01:24:24;;;;;;;1999.90;999.90;;;;;;;9.00;81.86;103018.88;5065696;28;20052;-65
2022/01/24 01:26:55;;;;;;;1999.90;999.90;;;;;;;8.91;82.74;103019.81;5065728;28;20072;-65
2022/01/24 01:29:26;;;;;;;1999.90;999.90;;;;;;;8.97;82.51;103024.16;5066345;28;20053;-65
2022/01/24 01:32:01;;;;;;;1999.90;999.90;;;;;;;8.99;82.13;103027.59;5066225;28;20704;-65
2022/01/24 01:34:49;;;;;;;1999.90;999.90;;;;;;;9.01;81.92;103025.84;5065501;28;20113;-65
2022/01/24 01:53:59;;;;;;;1999.90;999.90;;;;;;;8.72;82.68;103005.19;5075801;28;20748;-64
2022/01/24 01:56:26;;;;;;;1999.90;999.90;;;;;;;8.76;82.93;103006.84;5073077;28;20404;-64
2022/01/24 01:58:52;;;;;;;1999.90;999.90;;;;;;;8.74;83.10;103003.41;5072159;28;20101;-64
2022/01/24 02:01:18;;;;;;;1999.90;999.90;;;;;;;8.78;82.89;103003.38;5084721;28;20071;-64
2022/01/24 02:03:46;;;;;;;1999.90;999.90;;;;;;;8.79;82.75;103010.31;5086148;28;20537;-64
2022/01/24 02:06:13;;;;;;;1999.90;999.90;;;;;;;8.81;82.94;103007.69;5085927;28;20097;-64
2022/01/24 02:08:41;;;;;;;1999.90;999.90;;;;;;;8.95;82.33;103005.81;5077356;28;20457;-64
2022/01/24 02:11:10;;;;;;;1999.90;999.90;;;;;;;8.95;81.96;103004.94;5085711;28;20114;-64
2022/01/24 02:13:36;;;;;;;1999.90;999.90;;;;;;;8.90;82.31;103006.75;5074503;28;20060;-64
2022/01/24 02:16:10;;;;;;;1999.90;999.90;;;;;;;8.83;82.29;102999.84;5066001;28;20103;-64
2022/01/24 02:18:44;;;;;;;1999.90;999.90;;;;;;;8.84;82.18;102996.34;5071085;28;20060;-64
2022/01/24 02:21:27;;;;;;;1999.90;999.90;;;;;;;8.98;81.66;103004.94;5076806;28;20094;-64
2022/01/24 02:23:57;;;;;;;1999.90;999.90;;;;;;;8.71;83.25;102995.59;5086099;28;20139;-64
2022/01/24 02:26:24;;;;;;;1999.90;999.90;;;;;;;8.85;82.57;102998.94;5088441;28;20048;-64
2022/01/24 02:29:08;;;;;;;1999.90;999.90;;;;;;;8.80;82.77;102998.97;5067427;28;20496;-64
2022/01/24 02:31:42;;;;;;;1999.90;999.90;;;;;;;8.85;82.74;102992.84;5068413;28;20045;-64
2022/01/24 02:34:32;;;;;;;1999.90;999.90;;;;;;;8.86;82.75;103002.44;5068630;28;20044;-64
2022/01/24 02:37:03;;;;;;;1999.90;999.90;;;;;;;8.97;82.58;103005.81;5077046;28;20032;-64
2022/01/24 02:39:46;;;;;;;1999.90;999.90;;;;;;;8.89;82.05;103003.28;5087034;28;20044;-64
2022/01/24 02:50:47;;;;;;;1999.90;999.90;;;;;;;8.86;82.44;103005.06;5086596;28;20465;-64
2022/01/24 02:53:15;;;;;;;1999.90;999.90;;;;;;;8.80;82.44;103003.34;5071316;28;20047;-64
2022/01/24 02:55:42;;;;;;;1999.90;999.90;;;;;;;8.86;82.35;103005.06;5088423;28;20157;-64
2022/01/24 02:58:09;;;;;;;1999.90;999.90;;;;;;;8.95;81.86;103010.19;5088225;28;20766;-64
2022/01/24 03:00:37;;;;;;;1999.90;999.90;;;;;;;8.93;82.02;103007.59;5084548;27;20055;-64
2022/01/24 03:03:03;;;;;;;1999.90;999.90;;;;;;;8.95;81.48;102995.38;5088664;28;20424;-64
2022/01/24 03:05:30;;;;;;;1999.90;999.90;;;;;;;9.03;81.28;102996.16;5088939;28;20058;-64
2022/01/24 03:07:56;;;;;;;1999.90;999.90;;;;;;;8.88;81.61;102992.81;5088703;28;20124;-64
2022/01/24 03:10:27;;;;;;;1999.90;999.90;;;;;;;8.77;82.20;102999.00;5088063;28;20105;-64
2022/01/24 03:13:09;;;;;;;1999.90;999.90;;;;;;;8.75;82.18;102992.06;5087120;28;20047;-64
2022/01/24 03:15:36;;;;;;;1999.90;999.90;;;;;;;8.77;82.77;102999.00;5088414;28;20052;-64
2022/01/24 03:18:02;;;;;;;1999.90;999.90;;;;;;;8.83;82.04;102998.13;5088421;28;20450;-64
2022/01/24 03:20:29;;;;;;;1999.90;999.90;;;;;;;8.80;82.54;102998.97;5087747;28;20052;-64
2022/01/24 03:22:55;;;;;;;1999.90;999.90;;;;;;;8.85;82.35;103000.69;5085882;27;20044;-64
2022/01/24 03:25:22;;;;;;;1999.90;999.90;;;;;;;8.88;82.13;102998.91;5087155;28;20044;-64
2022/01/24 03:27:49;;;;;;;1999.90;999.90;;;;;;;9.04;80.92;102994.41;5088898;28;20511;-64
2022/01/24 03:30:16;;;;;;;1999.90;999.90;;;;;;;8.86;81.37;103002.44;5088666;28;20487;-64
2022/01/24 03:32:42;;;;;;;1999.90;999.90;;;;;;;8.84;81.88;102997.22;5070880;28;20044;-64
2022/01/24 03:35:09;;;;;;;1999.90;999.90;;;;;;;8.79;81.76;103002.47;5060511;28;20428;-64
2022/01/24 03:37:36;;;;;;;1999.90;999.90;;;;;;;8.80;81.35;102996.38;5069628;28;20122;-64
2022/01/24 03:40:03;;;;;;;1999.90;999.90;;;;;;;8.70;82.43;102997.34;5069806;28;20064;-64
2022/01/24 03:42:30;;;;;;;1999.90;999.90;;;;;;;8.84;81.17;102999.81;5069552;28;20492;-64
2022/01/24 03:45:00;;;;;;;1999.90;999.90;;;;;;;8.66;81.95;102995.63;5066533;28;20073;-64
2022/01/24 03:47:43;;;;;;;1999.90;999.90;;;;;;;8.74;81.55;103003.41;5063064;28;20040;-64
2022/01/24 03:50:15;;;;;;;1999.90;999.90;;;;;;;8.58;82.12;102999.16;5050208;28;20067;-64
2022/01/24 03:52:41;;;;;;;1999.90;999.90;;;;;;;8.40;83.07;102999.28;5050052;28;20547;-64
2022/01/24 03:55:08;;;;;;;1999.90;999.90;;;;;;;8.31;82.96;103000.25;5065706;28;20051;-64
2022/01/24 03:57:34;;;;;;;1999.90;999.90;;;;;;;8.55;81.98;103002.69;5069662;28;20408;-64
2022/01/24 04:00:04;;;;;;;1999.90;999.90;;;;;;;8.57;81.52;103000.91;5070257;28;20048;-64
2022/01/24 04:02:31;;;;;;;1999.90;999.90;;;;;;;8.59;81.05;103004.41;5069412;28;20105;-64
2022/01/24 04:04:57;;;;;;;1999.90;999.90;;;;;;;8.46;81.54;102994.03;5068697;28;20045;-64
2022/01/24 04:07:24;;;;;;;1999.90;999.90;;;;;;;8.47;81.42;102995.75;5068857;28;20558;-64
2022/01/24 04:09:50;;;;;;;1999.90;999.90;;;;;;;8.08;83.07;102994.25;5065457;28;20098;-64
2022/01/24 04:12:17;;;;;;;1999.90;999.90;;;;;;;8.24;82.35;103003.75;5065834;28;20052;-64
2022/01/24 04:15:06;;;;;;;1999.90;999.90;;;;;;;8.27;82.63;102994.13;5070162;28;20040;-64
2022/01/24 04:17:39;;;;;;;1999.90;999.90;;;;;;;8.34;82.33;103001.97;5068563;28;20048;-64
2022/01/24 04:22:53;;;;;;;1999.90;999.90;;;;;;;8.24;82.31;102998.53;5086288;28;20129;-64
2022/01/24 04:25:23;;;;;;;1999.90;999.90;;;;;;;8.31;81.44;102995.84;5080966;28;20052;-64
2022/01/24 04:27:50;;;;;;;1999.90;999.90;;;;;;;8.34;81.58;103004.56;5088798;28;20089;-64
2022/01/24 04:30:16;;;;;;;1999.90;999.90;;;;;;;8.35;81.10;103001.09;5089585;28;20487;-64
2022/01/24 04:32:44;;;;;;;1999.90;999.90;;;;;;;8.04;82.46;102997.75;5085500;28;20722;-64
2022/01/24 04:35:10;;;;;;;1999.90;999.90;;;;;;;8.04;82.53;103010.81;5085116;28;20407;-64
2022/01/24 04:37:36;;;;;;;1999.90;999.90;;;;;;;8.13;82.22;103006.41;5089023;28;20517;-64
2022/01/24 04:40:04;;;;;;;1999.90;999.90;;;;;;;8.22;81.49;103006.34;5089350;28;20102;-64
2022/01/24 04:42:39;;;;;;;1999.90;999.90;;;;;;;8.12;82.18;103001.19;5088185;28;20043;-64
2022/01/24 04:45:26;;;;;;;1999.90;999.90;;;;;;;8.18;81.61;103007.25;5089678;28;20044;-64
2022/01/24 04:50:45;;;;;;;1999.90;999.90;;;;;;;8.06;81.88;103015.16;5068839;28;20071;-64
2022/01/24 04:53:28;;;;;;;1999.90;999.90;;;;;;;8.10;81.89;103011.63;5068670;28;20540;-64
2022/01/24 04:55:55;;;;;;;1999.90;999.90;;;;;;;8.20;81.82;103013.31;5088605;28;20415;-64
2022/01/24 04:58:21;;;;;;;1999.90;999.90;;;;;;;8.23;81.46;103015.94;5088762;28;20492;-64
2022/01/24 05:00:47;;;;;;;1999.90;999.90;;;;;;;8.13;81.48;103016.84;5088754;28;20048;-64
2022/01/24 05:03:15;;;;;;;1999.90;999.90;;;;;;;7.89;82.76;103022.19;5088183;28;20125;-64
2022/01/24 05:05:42;;;;;;;1999.90;999.90;;;;;;;7.90;82.32;103030.91;5083654;28;20097;-64
2022/01/24 05:08:09;;;;;;;1999.90;999.90;;;;;;;7.93;82.53;103037.00;5082231;28;20399;-65
2022/01/24 05:10:40;;;;;;;1999.90;999.90;;;;;;;7.89;82.69;103026.56;5088924;28;20384;-64
2022/01/24 05:21:38;;;;;;;1999.90;999.90;;;;;;;7.95;82.16;103031.75;5066977;28;20178;-66
2022/01/24 05:24:05;;;;;;;1999.90;999.90;;;;;;;7.93;82.14;103018.72;5056133;28;20040;-64
2022/01/24 05:26:31;;;;;;;1999.90;999.90;;;;;;;7.87;82.46;103020.47;5082609;28;20059;-65
2022/01/24 05:28:57;;;;;;;1999.90;999.90;;;;;;;7.95;82.34;103019.56;5088813;28;20040;-65
2022/01/24 05:31:24;;;;;;;1999.90;999.90;;;;;;;8.06;82.11;103022.09;5078400;28;20067;-65
2022/01/24 05:33:51;;;;;;;1999.90;999.90;;;;;;;8.11;81.50;103022.97;5067045;28;20047;-65
2022/01/24 05:36:18;;;;;;;1999.90;999.90;;;;;;;7.88;81.83;103030.91;5068240;28;20044;-65
2022/01/24 05:38:44;;;;;;;1999.90;999.90;;;;;;;8.04;81.23;103024.75;5068833;28;20194;-65
2022/01/24 05:41:10;;;;;;;1999.90;999.90;;;;;;;8.07;81.30;103023.84;5068339;28;20569;-65
2022/01/24 05:43:37;;;;;;;1999.90;999.90;;;;;;;7.97;81.50;103024.78;5067686;28;20053;-65
2022/01/24 05:46:03;;;;;;;1999.90;999.90;;;;;;;8.05;81.49;103031.72;5068454;28;20053;-65
2022/01/24 05:48:29;;;;;;;1999.90;999.90;;;;;;;7.97;81.51;103024.78;5059718;28;20090;-65
2022/01/24 05:50:57;;;;;;;1999.90;999.90;;;;;;;7.96;82.17;103029.13;5068463;28;20466;-65
2022/01/24 05:53:23;;;;;;;1999.90;999.90;;;;;;;8.06;81.47;103029.94;5063654;28;20053;-65
2022/01/24 05:55:50;;;;;;;1999.90;999.90;;;;;;;8.00;81.11;103035.22;5072182;28;20067;-65
2022/01/24 05:58:16;;;;;;;1999.90;999.90;;;;;;;7.91;81.59;103036.13;5072193;28;20049;-65
2022/01/24 06:00:42;;;;;;;1999.90;999.90;;;;;;;8.00;81.84;103037.81;5071123;28;20040;-65
2022/01/24 06:03:09;;;;;;;1999.90;999.90;;;;;;;7.97;81.57;103037.84;5071923;28;20044;-65
2022/01/24 06:05:35;;;;;;;1999.90;999.90;;;;;;;7.98;81.40;103031.75;5071276;28;20048;-65
2022/01/24 06:08:03;;;;;;;1999.90;999.90;;;;;;;7.99;81.16;103036.09;5071533;28;20093;-64
2022/01/24 06:10:29;;;;;;;1999.90;999.90;;;;;;;7.99;81.16;103036.09;5065776;28;20044;-64
2022/01/24 06:12:56;;;;;;;1999.90;999.90;;;;;;;8.10;80.83;103032.53;5071231;28;20068;-64
2022/01/24 06:15:23;;;;;;;1999.90;999.90;;;;;;;8.07;80.99;103029.09;5071977;28;20044;-64
2022/01/24 06:17:49;;;;;;;1999.90;999.90;;;;;;;8.05;80.82;103033.47;5071088;28;20045;-64
2022/01/24 06:20:16;;;;;;;1999.90;999.90;;;;;;;8.04;81.07;103036.94;5071727;28;20052;-64
2022/01/24 06:22:42;;;;;;;1999.90;999.90;;;;;;;8.09;80.98;103036.03;5051536;28;20037;-64
2022/01/24 06:25:13;;;;;;;1999.90;999.90;;;;;;;8.11;81.03;103034.28;5071271;28;20121;-65
2022/01/24 06:27:39;;;;;;;1999.90;999.90;;;;;;;8.16;80.76;103040.38;5070864;28;20412;-65
2022/01/24 06:30:07;;;;;;;1999.90;999.90;;;;;;;8.23;80.16;103041.22;5070139;28;20036;-65
2022/01/24 06:32:33;;;;;;;1999.90;999.90;;;;;;;8.16;80.88;103036.88;5063797;28;20080;-64
2022/01/24 06:35:00;;;;;;;1999.90;999.90;;;;;;;8.07;80.67;103043.03;5058003;28;20064;-64
2022/01/24 06:37:26;;;;;;;1999.90;999.90;;;;;;;8.06;80.61;103043.88;5054188;28;20098;-64
2022/01/24 06:39:54;;;;;;;1999.90;999.90;;;;;;;8.06;80.79;103041.28;5067776;28;20041;-64
2022/01/24 06:42:23;;;;;;;1999.90;999.90;;;;;;;8.04;81.24;103042.16;5070646;28;20056;-64
2022/01/24 06:44:49;;;;;;;1999.90;999.90;;;;;;;8.06;80.87;103043.00;5071113;28;20068;-64
2022/01/24 06:47:16;;;;;;;1999.90;999.90;;;;;;;8.05;80.78;103030.84;5071318;28;20052;-64
2022/01/24 06:49:42;;;;;;;1999.90;999.90;;;;;;;7.99;81.02;103034.34;5071144;28;20048;-64
2022/01/24 06:52:08;;;;;;;1999.90;999.90;;;;;;;8.06;80.98;103037.78;5066243;28;20134;-64
2022/01/24 06:54:35;;;;;;;1999.90;999.90;;;;;;;8.07;80.40;103035.19;5060012;28;20101;-64
2022/01/24 06:57:02;;;;;;;1999.90;999.90;;;;;;;8.04;80.71;103034.31;5069424;28;20044;-64
2022/01/24 06:59:29;;;;;;;1999.90;999.90;;;;;;;8.00;80.77;103030.00;5069030;28;20565;-65
2022/01/24 07:01:56;;;;;;;1999.90;999.90;;;;;;;8.01;80.91;103024.78;5063950;28;20094;-64
2022/01/24 07:04:22;;;;;;;1999.90;999.90;;;;;;;8.04;80.76;103032.59;5068826;28;20491;-65
2022/01/24 07:06:49;;;;;;;1999.90;999.90;;;;;;;8.05;80.43;103023.88;5069662;28;20040;-65
2022/01/24 07:09:16;;;;;;;1999.90;999.90;;;;;;;7.96;80.48;103033.50;5086289;28;20078;-65
2022/01/24 07:11:42;;;;;;;1999.90;999.90;;;;;;;8.12;80.44;103037.78;5086106;28;20123;-65
2022/01/24 07:14:12;;;;;;;1999.90;999.90;;;;;;;8.11;80.30;103039.50;5084986;28;20056;-65
2022/01/24 07:17:03;;;;;;;1999.90;999.90;;;;;;;8.12;80.47;103040.38;5090592;28;20502;-65
2022/01/24 07:19:31;;;;;;;1999.90;999.90;;;;;;;8.11;80.51;103042.13;5090865;28;20048;-65
2022/01/24 07:21:59;;;;;;;1999.90;999.90;;;;;;;8.29;79.59;103042.06;5091058;28;20168;-65
2022/01/24 07:24:26;;;;;;;1999.90;999.90;;;;;;;8.00;80.39;103036.09;5088510;28;20048;-65
2022/01/24 07:26:53;;;;;;;1999.90;999.90;;;;;;;7.88;81.03;103046.56;5082745;28;20052;-65
2022/01/24 07:29:20;;;;;;;1999.90;999.90;;;;;;;7.92;81.26;103050.03;5089016;28;20048;-65
2022/01/24 07:31:48;;;;;;;1999.90;999.90;;;;;;;7.83;81.58;103064.03;5086410;28;20047;-65
2022/01/24 07:34:14;;;;;;;1999.90;999.90;;;;;;;7.90;82.11;103062.25;5082289;28;20056;-65
2022/01/24 07:36:41;;;;;;;1999.90;999.90;;;;;;;8.01;81.26;103063.09;5082029;28;20407;-65
2022/01/24 07:39:08;;;;;;;1999.90;999.90;;;;;;;8.03;81.13;103066.53;5088186;28;20040;-65
2022/01/24 07:41:42;;;;;;;1999.90;999.90;;;;;;;7.99;81.49;103055.25;5073377;28;20500;-65
2022/01/24 07:44:08;;;;;;;1999.90;999.90;;;;;;;8.08;81.08;103063.06;5074641;28;20135;-65
2022/01/24 07:46:35;;;;;;;1999.90;999.90;;;;;;;8.08;81.15;103068.28;5089390;28;20144;-65
2022/01/24 07:49:04;;;;;;;1999.90;999.90;;;;;;;8.09;81.32;103077.00;5088680;28;20093;-66
2022/01/24 07:51:31;;;;;;;1999.90;999.90;;;;;;;8.09;81.41;103061.31;5088409;28;20118;-65
2022/01/24 07:53:57;;;;;;;1999.90;999.90;;;;;;;8.07;81.07;103056.09;5083324;28;20048;-65
2022/01/24 07:56:23;;;;;;;1999.90;999.90;;;;;;;8.11;81.10;103070.00;5083384;28;20064;-65
2022/01/24 07:58:50;;;;;;;1999.90;999.90;;;;;;;8.17;81.05;103069.97;5065461;28;20101;-65
2022/01/24 08:01:16;;;;;;;1999.90;999.90;;;;;;;8.13;81.35;103069.09;5067770;28;20052;-66
2022/01/24 08:03:43;;;;;;;1999.90;999.90;;;;;;;8.12;81.24;103064.78;5065201;28;20385;-65
2022/01/24 08:06:11;;;;;;;1999.90;999.90;;;;;;;8.31;80.71;103060.38;5068294;28;20071;-65
2022/01/24 08:08:37;;;;;;;1999.90;999.90;;;;;;;8.28;80.93;103052.47;5068101;28;20044;-65
2022/01/24 08:11:04;;;;;;;1999.90;999.90;;;;;;;8.18;80.96;103056.03;5049801;28;20049;-65
2022/01/24 08:13:30;;;;;;;1999.90;999.90;;;;;;;8.14;81.14;103060.41;5048752;28;20476;-66
2022/01/24 08:15:57;;;;;;;1999.90;999.90;;;;;;;8.36;80.92;103061.19;5054934;28;20480;-65
2022/01/24 08:18:23;;;;;;;1999.90;999.90;;;;;;;8.40;80.77;103062.03;5066959;28;20102;-66
2022/01/24 08:20:50;;;;;;;1999.90;999.90;;;;;;;8.37;80.96;103068.16;5057129;28;20471;-66
2022/01/24 08:23:19;;;;;;;1999.90;999.90;;;;;;;8.37;81.46;103056.84;5054051;28;20048;-65
2022/01/24 08:25:46;;;;;;;1999.90;999.90;;;;;;;8.37;80.70;103075.13;5078743;27;20058;-65
2022/01/24 08:28:12;;;;;;;1999.90;999.90;;;;;;;8.40;80.83;103068.13;5071912;28;20052;-66
2022/01/24 08:30:38;;;;;;;1999.90;999.90;;;;;;;8.48;80.43;103061.13;5067710;28;20488;-66
2022/01/24 08:33:05;;;;;;;1999.90;999.90;;;;;;;8.55;80.58;103060.22;5063221;28;20044;-66
2022/01/24 08:35:32;;;;;;;1999.90;999.90;;;;;;;8.58;79.96;103054.94;5067800;28;20465;-66
2022/01/24 08:37:59;;;;;;;1999.90;999.90;;;;;;;8.55;80.19;103059.34;5069140;28;20169;-65
2022/01/24 08:40:28;;;;;;;1999.90;999.90;;;;;;;8.63;80.68;103055.81;5062274;28;20106;-66
2022/01/24 08:42:59;;;;;;;1999.90;999.90;;;;;;;8.61;79.27;103059.31;5067908;28;20044;-65
2022/01/24 08:45:50;;;;;;;1999.90;999.90;;;;;;;8.46;79.47;103051.56;5067240;28;20045;-66
2022/01/24 08:48:19;;;;;;;1999.90;999.90;;;;;;;8.56;79.53;103054.09;5089037;28;20153;-65
2022/01/24 08:50:48;;;;;;;1999.90;999.90;;;;;;;8.62;79.69;103058.41;5083426;28;20048;-66
2022/01/24 08:53:15;;;;;;;1999.90;999.90;;;;;;;8.69;79.01;103065.34;5088882;28;20058;-66
2022/01/24 08:55:42;;;;;;;1999.90;999.90;;;;;;;8.52;79.16;103061.97;5074766;28;20044;-66
2022/01/24 08:58:13;;;;;;;1999.90;999.90;;;;;;;8.49;79.81;103057.63;5065166;28;20049;-65
2022/01/24 09:00:40;;;;;;;1999.90;999.90;;;;;;;8.72;78.93;103058.34;5063382;28;20052;-66
2022/01/24 09:03:06;;;;;;;1999.90;999.90;;;;;;;8.69;79.49;103054.88;5056294;28;20041;-65
2022/01/24 09:05:35;;;;;;;1999.90;999.90;;;;;;;8.80;78.81;103061.75;5063380;28;20565;-66
2022/01/24 09:08:01;;;;;;;1999.90;999.90;;;;;;;8.71;78.73;103064.47;5055872;28;20557;-66
2022/01/24 09:10:28;;;;;;;1999.90;999.90;;;;;;;8.99;77.92;103065.09;5064456;28;20092;-66
2022/01/24 09:12:55;;;;;;;1999.90;999.90;;;;;;;8.70;78.94;103067.06;5068191;28;20428;-66
2022/01/24 09:15:22;;;;;;;1999.90;999.90;;;;;;;8.76;78.52;103061.78;5066689;28;20200;-66
2022/01/24 09:17:48;;;;;;;1999.90;999.90;;;;;;;8.94;77.68;103052.97;5068878;28;20044;-66
2022/01/24 09:20:15;;;;;;;1999.90;999.90;;;;;;;8.68;77.92;103059.22;5054838;28;20118;-66
2022/01/24 09:22:41;;;;;;;1999.90;999.90;;;;;;;8.63;78.03;103061.03;5052856;28;20048;-66
2022/01/24 09:25:10;;;;;;;1999.90;999.90;;;;;;;8.62;78.25;103059.28;5058777;28;20045;-66
2022/01/24 09:27:37;;;;;;;1999.90;999.90;;;;;;;8.73;78.59;103060.06;5062005;28;20044;-66
2022/01/24 09:30:09;;;;;;;1999.90;999.90;;;;;;;8.77;78.98;103053.06;5058187;28;20049;-66
2022/01/24 09:32:35;;;;;;;1999.90;999.90;;;;;;;8.72;78.90;103063.56;5062934;28;20090;-66
2022/01/24 09:35:04;;;;;;;1999.90;999.90;;;;;;;8.70;79.24;103061.84;5061712;28;21175;-66
2022/01/24 09:37:31;;;;;;;1999.90;999.90;;;;;;;8.67;78.83;103067.97;5051608;28;20472;-66
2022/01/24 09:39:57;;;;;;;1999.90;999.90;;;;;;;8.89;78.10;103070.44;5064952;28;20037;-65
2022/01/24 09:42:23;;;;;;;1999.90;999.90;;;;;;;8.87;78.29;103067.81;5063892;28;20080;-65
2022/01/24 09:44:50;;;;;;;1999.90;999.90;;;;;;;8.99;78.23;103064.22;5065870;28;20105;-65
2022/01/24 09:47:18;;;;;;;1999.90;999.90;;;;;;;9.00;77.90;103068.59;5065367;28;20484;-65
2022/01/24 09:49:46;;;;;;;1999.90;999.90;;;;;;;8.97;78.42;103068.63;5049046;28;20037;-66
2022/01/24 09:52:12;;;;;;;1999.90;999.90;;;;;;;9.11;77.52;103069.38;5080381;28;20075;-66
2022/01/24 09:54:39;;;;;;;1999.90;999.90;;;;;;;9.21;77.47;103065.78;5072429;28;20044;-65
2022/01/24 09:57:06;;;;;;;1999.90;999.90;;;;;;;9.13;77.04;103067.59;5058876;28;20041;-65
2022/01/24 09:59:33;;;;;;;1999.90;999.90;;;;;;;9.13;76.85;103062.38;5063828;28;20090;-66
2022/01/24 10:02:00;;;;;;;1999.90;999.90;;;;;;;9.09;77.02;103058.91;5061752;28;20581;-66
2022/01/24 10:04:28;;;;;;;1999.90;999.90;;;;;;;9.04;77.55;103062.47;5062469;28;20049;-66
2022/01/24 10:07:05;;;;;;;1999.90;999.90;;;;;;;8.97;77.79;103061.66;5060519;28;20645;-65
2022/01/24 10:09:35;;;;;;;1999.90;999.90;;;;;;;9.03;77.61;103060.72;5063992;28;20066;-65
2022/01/24 10:12:05;;;;;;;1999.90;999.90;;;;;;;9.05;77.70;103059.84;5047183;28;20037;-65
2022/01/24 10:17:20;;;;;;;1999.90;999.90;;;;;;;9.18;76.71;103048.38;5075129;28;20585;-65
2022/01/24 10:19:48;;;;;;;1999.90;999.90;;;;;;;8.98;76.85;103046.81;5062541;28;20068;-65
2022/01/24 10:22:14;;;;;;;1999.90;999.90;;;;;;;9.09;77.05;103048.44;5048405;28;20107;-65
2022/01/24 10:24:43;;;;;;;1999.90;999.90;;;;;;;9.05;75.89;103054.59;5063124;28;20563;-65
2022/01/24 10:27:13;;;;;;;1999.90;999.90;;;;;;;9.08;76.12;103051.09;5066568;28;20044;-64
2022/01/24 10:29:46;;;;;;;1999.90;999.90;;;;;;;9.01;76.67;103052.91;5065961;28;20052;-65
2022/01/24 10:32:28;;;;;;;1999.90;999.90;;;;;;;8.84;77.79;103048.66;5066820;28;20496;-64
2022/01/24 10:34:56;;;;;;;1999.90;999.90;;;;;;;8.90;77.67;103040.78;5050057;28;20098;-64
2022/01/24 10:37:24;;;;;;;1999.90;999.90;;;;;;;8.88;77.51;103047.75;5074969;28;20044;-65
2022/01/24 10:39:58;;;;;;;1999.90;999.90;;;;;;;8.63;78.23;103050.56;5069634;28;20067;-65
2022/01/24 10:42:41;;;;;;;1999.90;999.90;;;;;;;8.71;78.65;103048.78;5075523;27;20079;-65
2022/01/24 10:45:15;;;;;;;1999.90;999.90;;;;;;;8.65;78.23;103040.06;5079966;28;20446;-65
2022/01/24 10:47:48;;;;;;;1999.90;999.90;;;;;;;8.53;78.41;103042.81;5079127;28;20044;-66
2022/01/24 10:50:24;;;;;;;1999.90;999.90;;;;;;;8.58;78.77;103036.66;5060269;28;20081;-64
2022/01/24 10:52:51;;;;;;;1999.90;999.90;;;;;;;8.74;78.31;103038.28;5078883;28;20547;-65
2022/01/24 10:55:20;;;;;;;1999.90;999.90;;;;;;;8.82;78.62;103039.97;5092142;28;20047;-65
2022/01/24 10:57:50;;;;;;;1999.90;999.90;;;;;;;9.01;77.16;103026.72;5086002;28;20109;-65
2022/01/24 11:00:19;;;;;;;1999.90;999.90;;;;;;;8.94;76.65;103022.44;5078950;28;20048;-66
2022/01/24 11:02:49;;;;;;;1999.90;999.90;;;;;;;8.84;77.67;103030.34;5070995;28;20098;-66
2022/01/24 11:05:18;;;;;;;1999.90;999.90;;;;;;;8.85;78.10;103032.09;5065703;28;20060;-65
2022/01/24 11:07:54;;;;;;;1999.90;999.90;;;;;;;8.88;78.05;103026.81;5064328;28;20048;-65
2022/01/24 11:10:20;;;;;;;1999.90;999.90;;;;;;;8.85;77.35;103029.47;5059903;28;20623;-65
2022/01/24 11:12:47;;;;;;;1999.90;999.90;;;;;;;8.98;76.22;103024.13;5089291;28;20113;-65
2022/01/24 11:15:14;;;;;;;1999.90;999.90;;;;;;;8.78;77.62;103029.53;5073026;28;20048;-65
2022/01/24 11:17:42;;;;;;;1999.90;999.90;;;;;;;8.83;77.61;103026.00;5068291;28;20040;-65
2022/01/24 11:20:12;;;;;;;1999.90;999.90;;;;;;;8.80;77.39;103026.88;5068539;28;20080;-65
2022/01/24 11:22:44;;;;;;;1999.90;999.90;;;;;;;9.06;76.63;103024.91;5067730;28;20048;-65
2022/01/24 11:25:14;;;;;;;1999.90;999.90;;;;;;;8.72;76.52;103019.09;5063938;28;20040;-66
2022/01/24 11:27:43;;;;;;;1999.90;999.90;;;;;;;8.76;77.55;103020.81;5077596;28;20424;-65
2022/01/24 11:30:13;;;;;;;1999.90;999.90;;;;;;;8.88;76.68;103013.75;5082233;28;20044;-65
2022/01/24 11:32:46;;;;;;;1999.90;999.90;;;;;;;8.66;77.10;103015.66;5067994;28;20052;-66
2022/01/24 11:35:12;;;;;;;1999.90;999.90;;;;;;;8.66;77.23;103013.06;5068596;28;20106;-65
2022/01/24 11:37:41;;;;;;;1999.90;999.90;;;;;;;8.78;77.36;103008.59;5070187;28;20145;-65
2022/01/24 11:40:11;;;;;;;1999.90;999.90;;;;;;;8.74;77.37;103003.41;5070514;28;20048;-65
2022/01/24 11:42:40;;;;;;;1999.90;999.90;;;;;;;8.76;77.51;102999.88;5070284;28;20071;-66
2022/01/24 11:45:13;;;;;;;1999.90;999.90;;;;;;;8.61;77.82;102997.38;5069678;28;20052;-66
2022/01/24 11:47:41;;;;;;;1999.90;999.90;;;;;;;8.46;79.30;102987.03;5070347;28;20043;-66
2022/01/24 11:50:27;;;;;;;1999.90;999.90;;;;;;;7.97;80.52;102983.00;5070676;28;20060;-65
2022/01/24 11:52:56;;;;;;;1999.90;999.90;;;;;;;8.30;79.98;102991.53;5084792;28;20036;-65
2022/01/24 11:55:33;;;;;;;1999.90;999.90;;;;;;;8.19;80.20;102990.69;5090130;28;20055;-65
2022/01/24 11:58:04;;;;;;;1999.90;999.90;;;;;;;8.09;80.42;102986.38;5090230;28;20066;-66
2022/01/24 12:00:38;;;;;;;;;;;;;;;8.55;79.42;102989.59;5087687;28;20035;-66
2022/01/24 12:03:15;;;;;;;1999.90;999.90;;;;;;;8.83;78.21;102990.25;5089174;27;19928;-65
2022/01/24 12:05:43;;;;;;;1999.90;999.90;;;;;;;8.84;77.55;102985.88;5090598;28;20453;-66
2022/01/24 12:08:11;;;;;;;1999.90;999.90;;;;;;;8.95;77.10;102994.50;5090045;28;20044;-66
2022/01/24 12:10:43;;;;;;;1999.90;999.90;;;;;;;8.80;77.81;102988.53;5090083;28;20561;-66